createdAt,value
2022-08-20T00:02:15.187Z,87.89
2022-08-20T00:05:29.858Z,88.50
2022-08-20T00:08:33.061Z,88.35
2022-08-20T00:11:37.145Z,89.34
2022-08-20T00:14:40.371Z,88.96
2022-08-20T00:17:43.381Z,89.44
2022-08-20T00:20:49.291Z,88.71
2022-08-20T00:23:54.299Z,88.39
2022-08-20T00:26:56.986Z,89.04
2022-08-20T00:30:00.138Z,88.59
2022-08-20T00:33:06.712Z,88.65
2022-08-20T00:36:12.463Z,88.85
2022-08-20T00:39:15.157Z,88.12
2022-08-20T00:42:18.134Z,87.84
2022-08-20T00:45:23.955Z,87.43
2022-08-20T00:48:31.875Z,88.16
2022-08-20T00:51:45.496Z,88.32
2022-08-20T00:54:59.147Z,87.81
2022-08-20T00:58:10.007Z,87.03
2022-08-20T01:01:15.924Z,86.33
2022-08-20T01:04:19.083Z,87.24
2022-08-20T01:07:29.485Z,88.30
2022-08-20T01:10:40.287Z,88.69
2022-08-20T01:13:45.683Z,89.41
2022-08-20T01:16:51.852Z,89.51
2022-08-20T01:20:03.201Z,89.42
2022-08-20T01:23:32.864Z,88.84
2022-08-20T01:26:43.978Z,90.00
2022-08-20T01:29:48.072Z,89.47
2022-08-20T01:32:52.432Z,89.26
2022-08-20T01:35:56.370Z,89.49
2022-08-20T01:39:00.838Z,89.39
2022-08-20T01:42:17.809Z,89.59
2022-08-20T01:45:21.429Z,89.80
2022-08-20T01:48:30.154Z,89.59
2022-08-20T01:51:33.196Z,90.39
2022-08-20T01:54:36.229Z,89.71
2022-08-20T01:57:40.253Z,88.81
2022-08-20T02:00:43.423Z,89.02
2022-08-20T02:03:46.422Z,89.72
2022-08-20T02:06:58.004Z,90.13
2022-08-20T02:10:01.708Z,90.09
2022-08-20T02:13:05.749Z,90.10
2022-08-20T02:16:08.814Z,89.48
2022-08-20T02:19:21.459Z,89.24
2022-08-20T02:22:34.670Z,88.47
2022-08-20T02:25:41.153Z,88.22
2022-08-20T02:28:45.277Z,88.28
2022-08-20T02:32:23.611Z,88.85
2022-08-20T02:35:13.492Z,88.93
2022-08-20T02:38:16.689Z,89.12
2022-08-20T02:41:22.299Z,89.74
2022-08-20T02:44:25.442Z,89.60
2022-08-20T02:47:30.656Z,89.28
2022-08-20T02:50:33.680Z,89.16
2022-08-20T02:53:38.935Z,89.33
2022-08-20T02:56:42.762Z,88.76
2022-08-20T02:59:45.446Z,88.68
2022-08-20T03:02:48.871Z,88.64
2022-08-20T03:05:54.990Z,87.85
2022-08-20T03:08:58.064Z,87.52
2022-08-20T03:12:00.960Z,87.28
2022-08-20T03:15:05.064Z,88.05
2022-08-20T03:18:07.968Z,87.73
2022-08-20T03:21:14.824Z,88.17
2022-08-20T03:24:18.291Z,87.89
2022-08-20T03:27:22.045Z,88.67
2022-08-20T03:30:30.529Z,90.05
2022-08-20T03:33:34.168Z,90.26
2022-08-20T03:36:37.078Z,90.38
2022-08-20T03:39:40.480Z,89.63
2022-08-20T03:42:45.298Z,88.76
2022-08-20T03:45:48.384Z,89.08
2022-08-20T03:48:59.821Z,89.01
2022-08-20T03:52:05.395Z,88.82
2022-08-20T03:55:12.231Z,88.32
2022-08-20T03:58:17.626Z,88.03
2022-08-20T04:01:44.517Z,87.77
2022-08-20T04:04:44.522Z,87.19
2022-08-20T04:07:47.183Z,89.32
2022-08-20T04:10:51.422Z,89.82
2022-08-20T04:13:54.181Z,91.49
2022-08-20T04:16:57.765Z,92.03
2022-08-20T04:20:06.276Z,91.93
2022-08-20T04:23:09.981Z,92.58
2022-08-20T04:26:14.021Z,92.03
2022-08-20T04:29:17.046Z,92.13
2022-08-20T04:32:21.438Z,92.01
2022-08-20T04:35:24.827Z,91.98
2022-08-20T04:38:47.908Z,91.50
2022-08-20T04:41:51.467Z,91.42
2022-08-20T04:44:54.139Z,92.45
2022-08-20T04:48:05.929Z,93.23
2022-08-20T04:51:09.434Z,93.50
2022-08-20T04:54:13.982Z,93.47
2022-08-20T04:57:17.696Z,92.40
2022-08-20T05:00:20.613Z,92.55
2022-08-20T05:03:24.474Z,92.85
2022-08-20T05:06:32.152Z,93.47
2022-08-20T05:09:43.815Z,92.70
2022-08-20T05:12:56.817Z,92.67
2022-08-20T05:16:02.195Z,91.53
2022-08-20T05:19:07.021Z,91.56
2022-08-20T05:22:09.917Z,91.28
2022-08-20T05:25:13.207Z,89.00
2022-08-20T05:28:22.187Z,89.32
2022-08-20T05:31:32.357Z,90.23
2022-08-20T05:34:36.605Z,90.54
2022-08-20T05:37:43.810Z,90.95
2022-08-20T05:40:47.490Z,91.33
2022-08-20T05:43:51.592Z,92.30
2022-08-20T05:46:54.412Z,92.02
2022-08-20T05:49:57.703Z,92.18
2022-08-20T05:53:01.720Z,92.27
2022-08-20T05:56:04.924Z,92.31
2022-08-20T05:59:10.032Z,92.56
2022-08-20T06:02:31.537Z,92.63
2022-08-20T06:05:35.024Z,93.01
2022-08-20T06:08:38.274Z,93.22
2022-08-20T06:11:44.729Z,93.19
2022-08-20T06:14:47.527Z,93.34
2022-08-20T06:17:58.153Z,92.93
2022-08-20T06:21:02.473Z,93.32
2022-08-20T06:24:06.931Z,92.60
2022-08-20T06:27:15.884Z,92.68
2022-08-20T06:30:19.065Z,92.69
2022-08-20T06:33:23.873Z,92.39
2022-08-20T06:36:27.648Z,92.93
2022-08-20T06:39:31.477Z,92.97
2022-08-20T06:42:34.596Z,93.05
2022-08-20T06:45:39.088Z,92.20
2022-08-20T06:48:42.794Z,92.29
2022-08-20T06:51:45.763Z,92.47
2022-08-20T06:54:54.525Z,92.51
2022-08-20T06:58:03.014Z,92.59
2022-08-20T07:01:10.130Z,92.15
2022-08-20T07:04:13.142Z,92.04
2022-08-20T07:07:18.131Z,92.18
2022-08-20T07:10:22.811Z,92.36
2022-08-20T07:13:25.965Z,92.54
2022-08-20T07:16:29.715Z,92.11
2022-08-20T07:19:33.503Z,92.50
2022-08-20T07:22:37.149Z,93.08
2022-08-20T07:25:42.531Z,93.93
2022-08-20T07:28:46.001Z,94.58
2022-08-20T07:32:07.667Z,93.68
2022-08-20T07:35:18.579Z,94.48
2022-08-20T07:38:24.945Z,94.11
2022-08-20T07:41:27.720Z,94.19
2022-08-20T07:44:31.402Z,93.74
2022-08-20T07:47:36.302Z,93.71
2022-08-20T07:50:39.860Z,93.86
2022-08-20T07:53:42.684Z,94.36
2022-08-20T07:56:45.658Z,93.66
2022-08-20T07:59:49.025Z,94.58
2022-08-20T08:02:53.053Z,94.75
2022-08-20T08:05:57.276Z,94.54
2022-08-20T08:09:05.163Z,94.05
2022-08-20T08:12:08.309Z,93.71
2022-08-20T08:15:15.847Z,94.56
2022-08-20T08:18:31.920Z,94.56
2022-08-20T08:21:34.962Z,94.98
2022-08-20T08:24:39.705Z,93.73
2022-08-20T08:27:43.914Z,93.85
2022-08-20T08:30:49.353Z,93.99
2022-08-20T08:33:53.962Z,94.55
2022-08-20T08:36:59.149Z,94.63
2022-08-20T08:40:02.028Z,94.84
2022-08-20T08:43:08.353Z,94.26
2022-08-20T08:46:12.997Z,94.78
2022-08-20T08:49:23.485Z,94.31
2022-08-20T08:52:32.328Z,94.38
2022-08-20T08:55:35.861Z,94.68
2022-08-20T08:58:38.590Z,94.38
2022-08-20T09:01:54.914Z,94.27
2022-08-20T09:05:02.388Z,94.43
2022-08-20T09:08:12.590Z,94.19
2022-08-20T09:11:20.491Z,94.22
2022-08-20T09:14:25.193Z,94.16
2022-08-20T09:17:27.787Z,94.56
2022-08-20T09:20:31.427Z,94.61
2022-08-20T09:23:35.446Z,94.67
2022-08-20T09:26:39.257Z,94.24
2022-08-20T09:29:42.310Z,94.23
2022-08-20T09:32:46.591Z,93.97
2022-08-20T09:35:49.184Z,93.75
2022-08-20T09:38:52.653Z,92.94
2022-08-20T09:41:55.515Z,93.07
2022-08-20T09:44:59.980Z,93.23
2022-08-20T09:48:03.547Z,92.63
2022-08-20T09:51:06.666Z,91.42
2022-08-20T09:54:09.420Z,91.51
2022-08-20T09:57:13.234Z,91.33
2022-08-20T10:00:17.030Z,91.09
2022-08-20T10:03:20.389Z,91.09
2022-08-20T10:06:23.038Z,91.06
2022-08-20T10:09:26.140Z,91.51
2022-08-20T10:12:29.688Z,91.36
2022-08-20T10:15:32.814Z,90.62
2022-08-20T10:18:36.899Z,90.96
2022-08-20T10:21:40.408Z,90.35
2022-08-20T10:24:44.365Z,89.92
2022-08-20T10:27:48.799Z,90.31
2022-08-20T10:30:51.481Z,90.29
2022-08-20T10:33:55.277Z,90.75
2022-08-20T10:36:59.223Z,90.42
2022-08-20T10:40:02.661Z,90.21
2022-08-20T10:43:05.415Z,90.29
2022-08-20T10:46:10.951Z,90.69
2022-08-20T10:49:13.616Z,90.36
2022-08-20T10:52:16.677Z,90.05
2022-08-20T10:55:19.393Z,90.12
2022-08-20T10:58:23.925Z,89.75
2022-08-20T11:01:32.840Z,90.50
2022-08-20T11:04:37.300Z,88.45
2022-08-20T11:07:55.439Z,87.25
2022-08-20T11:10:59.614Z,84.81
2022-08-20T11:14:02.468Z,83.52
2022-08-20T11:17:06.157Z,79.46
2022-08-20T11:20:13.864Z,81.15
2022-08-20T11:23:19.012Z,79.47
2022-08-20T11:26:25.379Z,81.18
2022-08-20T11:29:33.833Z,81.78
2022-08-20T11:32:37.090Z,80.17
2022-08-20T11:35:48.283Z,83.07
2022-08-20T11:38:53.535Z,82.13
2022-08-20T11:41:56.522Z,81.55
2022-08-20T11:44:59.330Z,80.53
2022-08-20T11:48:02.299Z,81.95
2022-08-20T11:51:05.447Z,81.96
2022-08-20T11:54:08.433Z,81.74
2022-08-20T11:57:11.456Z,82.66
2022-08-20T12:00:21.509Z,82.43
2022-08-20T12:03:37.607Z,83.10
2022-08-20T12:06:40.530Z,82.79
2022-08-20T12:09:51.090Z,82.91
2022-08-20T12:12:55.391Z,83.07
2022-08-20T12:15:58.670Z,82.76
2022-08-20T12:19:01.386Z,82.37
2022-08-20T12:22:20.445Z,82.07
2022-08-20T12:25:27.254Z,82.87
2022-08-20T12:28:31.676Z,83.31
2022-08-20T12:31:34.416Z,82.73
2022-08-20T12:34:39.177Z,83.05
2022-08-20T12:37:42.898Z,81.93
2022-08-20T12:40:46.183Z,80.56
2022-08-20T12:43:49.415Z,80.96
2022-08-20T12:46:55.277Z,79.44
2022-08-20T12:50:08.137Z,79.86
2022-08-20T12:53:11.182Z,80.18
2022-08-20T12:56:14.273Z,79.64
2022-08-20T12:59:17.312Z,78.96
2022-08-20T13:02:20.145Z,79.12
2022-08-20T13:05:23.849Z,81.94
2022-08-20T13:08:26.572Z,77.26
2022-08-20T13:11:29.788Z,77.61
2022-08-20T13:14:32.580Z,76.69
2022-08-20T13:17:38.590Z,77.37
2022-08-20T13:20:42.065Z,77.49
2022-08-20T13:23:46.462Z,77.51
2022-08-20T13:26:49.919Z,75.28
2022-08-20T13:29:58.615Z,76.01
2022-08-20T13:33:02.254Z,76.97
2022-08-20T13:36:05.489Z,79.13
2022-08-20T13:39:08.346Z,77.44
2022-08-20T13:42:14.180Z,74.91
2022-08-20T13:45:17.605Z,77.88
2022-08-20T13:48:20.707Z,78.30
2022-08-20T13:51:27.225Z,77.80
2022-08-20T13:54:33.555Z,76.68
2022-08-20T13:57:38.460Z,77.17
2022-08-20T14:00:42.018Z,76.98
2022-08-20T14:03:46.719Z,77.10
2022-08-20T14:06:50.779Z,77.47
2022-08-20T14:09:58.978Z,77.45
2022-08-20T14:13:03.630Z,76.05
2022-08-20T14:16:06.702Z,75.85
2022-08-20T14:19:24.182Z,75.68
2022-08-20T14:22:27.576Z,75.19
2022-08-20T14:25:32.702Z,74.47
2022-08-20T14:28:35.681Z,74.97
2022-08-20T14:31:38.336Z,76.45
2022-08-20T14:34:42.567Z,75.36
2022-08-20T14:37:55.020Z,74.56
2022-08-20T14:40:58.211Z,76.06
2022-08-20T14:44:00.897Z,76.27
2022-08-20T14:47:22.675Z,77.66
2022-08-20T14:50:31.643Z,77.08
2022-08-20T14:53:39.831Z,77.74
2022-08-20T14:56:43.023Z,76.58
2022-08-20T14:59:47.084Z,76.44
2022-08-20T15:02:49.933Z,77.25
2022-08-20T15:05:53.162Z,76.42
2022-08-20T15:08:57.493Z,75.89
2022-08-20T15:12:00.625Z,77.18
2022-08-20T15:15:15.528Z,76.29
2022-08-20T15:18:25.215Z,76.53
2022-08-20T15:21:28.255Z,76.60
2022-08-20T15:24:31.474Z,77.33
2022-08-20T15:27:36.968Z,77.58
2022-08-20T15:30:41.857Z,78.27
2022-08-20T15:33:44.479Z,78.35
2022-08-20T15:36:47.510Z,79.11
2022-08-20T15:39:52.206Z,80.47
2022-08-20T15:42:55.554Z,80.07
2022-08-20T15:46:01.394Z,80.05
2022-08-20T15:49:04.819Z,80.55
2022-08-20T15:52:07.690Z,80.69
2022-08-20T15:55:14.817Z,80.96
2022-08-20T15:58:39.008Z,80.72
2022-08-20T16:02:01.443Z,81.01
2022-08-20T16:05:41.514Z,80.81
2022-08-20T16:09:32.647Z,80.66
2022-08-20T16:12:42.591Z,81.74
2022-08-20T16:15:49.459Z,81.26
2022-08-20T16:18:54.429Z,82.35
2022-08-20T16:21:58.491Z,81.65
2022-08-20T16:25:04.320Z,82.05
2022-08-20T16:28:33.061Z,82.02
2022-08-20T16:31:43.150Z,81.28
2022-08-20T16:34:59.246Z,81.62
2022-08-20T16:38:12.494Z,81.70
2022-08-20T16:41:21.268Z,82.26
2022-08-20T16:44:49.111Z,82.55
2022-08-20T16:47:57.388Z,82.20
2022-08-20T16:51:17.241Z,83.02
2022-08-20T16:54:29.300Z,82.79
2022-08-20T16:57:34.274Z,84.01
2022-08-20T17:00:44.844Z,83.87
2022-08-20T17:03:50.651Z,84.38
2022-08-20T17:06:53.606Z,85.16
2022-08-20T17:10:13.421Z,86.00
2022-08-20T17:13:16.162Z,86.12
2022-08-20T17:16:21.718Z,84.50
2022-08-20T17:19:31.281Z,85.04
2022-08-20T17:22:43.476Z,85.42
2022-08-20T17:25:56.627Z,84.40
2022-08-20T17:29:03.392Z,84.88
2022-08-20T17:32:16.719Z,85.25
2022-08-20T17:35:27.918Z,85.69
2022-08-20T17:39:06.071Z,85.33
2022-08-20T17:42:15.068Z,84.86
2022-08-20T17:45:44.154Z,85.34
2022-08-20T17:48:49.046Z,84.95
2022-08-20T17:51:55.289Z,85.52
2022-08-20T17:54:59.697Z,86.38
2022-08-20T17:58:06.984Z,86.74
2022-08-20T18:01:14.970Z,87.37
2022-08-20T18:04:18.125Z,87.34
2022-08-20T18:07:25.269Z,87.41
2022-08-20T18:10:29.890Z,86.83
2022-08-20T18:14:18.630Z,86.59
2022-08-20T18:17:49.368Z,85.67
2022-08-20T18:20:51.911Z,85.33
2022-08-20T18:24:18.790Z,85.19
2022-08-20T18:27:25.540Z,84.66
2022-08-20T18:30:28.622Z,84.54
2022-08-20T18:33:31.271Z,84.69
2022-08-20T18:36:35.720Z,84.67
2022-08-20T18:39:42.141Z,84.12
2022-08-20T18:42:45.527Z,84.20
2022-08-20T18:45:49.406Z,84.39
2022-08-20T18:49:01.717Z,84.99
2022-08-20T18:52:26.430Z,85.04
2022-08-20T18:55:37.098Z,85.57
2022-08-20T18:59:02.117Z,85.32
2022-08-20T19:02:20.756Z,85.14
2022-08-20T19:05:37.044Z,84.79
2022-08-20T19:08:50.316Z,84.18
2022-08-20T19:11:57.169Z,83.37
2022-08-20T19:15:24.202Z,82.98
2022-08-20T19:18:44.456Z,82.85
2022-08-20T19:21:48.368Z,83.02
2022-08-20T19:24:56.796Z,82.92
2022-08-20T19:28:04.813Z,82.76
2022-08-20T19:31:21.890Z,82.70
2022-08-20T19:34:26.549Z,82.98
2022-08-20T19:37:44.472Z,83.16
2022-08-20T19:41:08.894Z,83.10
2022-08-20T19:44:25.700Z,84.04
2022-08-20T19:47:38.627Z,84.11
2022-08-20T19:51:12.570Z,84.08
2022-08-20T19:54:28.120Z,83.81
2022-08-20T19:57:31.040Z,84.79
2022-08-20T20:00:44.959Z,84.47
2022-08-20T20:03:57.745Z,84.62
2022-08-20T20:07:00.654Z,85.84
2022-08-20T20:10:08.169Z,85.08
2022-08-20T20:13:15.147Z,84.59
2022-08-20T20:16:20.966Z,84.60
2022-08-20T20:19:27.203Z,84.34
2022-08-20T20:22:34.148Z,85.23
2022-08-20T20:25:43.905Z,85.35
2022-08-20T20:28:50.254Z,85.56
2022-08-20T20:31:56.861Z,85.62
2022-08-20T20:35:03.051Z,85.40
2022-08-20T20:38:10.277Z,85.05
2022-08-20T20:41:22.523Z,85.34
2022-08-20T20:44:37.718Z,84.87
2022-08-20T20:47:40.879Z,85.16
2022-08-20T20:50:43.677Z,86.11
2022-08-20T20:53:54.596Z,86.26
2022-08-20T20:57:37.744Z,85.68
2022-08-20T21:00:41.416Z,85.66
2022-08-20T21:03:44.085Z,85.48
2022-08-20T21:06:47.650Z,85.66
2022-08-20T21:09:52.366Z,85.92
2022-08-20T21:12:55.450Z,85.73
2022-08-20T21:15:58.376Z,86.22
2022-08-20T21:19:04.700Z,86.45
2022-08-20T21:22:07.443Z,86.49
2022-08-20T21:25:15.157Z,86.66
2022-08-20T21:28:18.008Z,86.55
2022-08-20T21:31:21.081Z,86.33
2022-08-20T21:34:23.861Z,85.96
2022-08-20T21:37:26.876Z,85.83
2022-08-20T21:40:29.644Z,85.46
2022-08-20T21:43:33.227Z,85.40
2022-08-20T21:46:35.969Z,86.01
2022-08-20T21:49:38.890Z,85.54
2022-08-20T21:52:43.962Z,85.31
2022-08-20T21:56:02.593Z,85.17
2022-08-20T21:59:08.826Z,84.84
2022-08-20T22:02:11.942Z,84.44
2022-08-20T22:05:16.507Z,83.83
2022-08-20T22:08:20.867Z,84.00
2022-08-20T22:11:28.878Z,84.14
2022-08-20T22:14:31.686Z,84.99
2022-08-20T22:17:34.703Z,84.63
2022-08-20T22:20:37.413Z,84.26
2022-08-20T22:23:40.705Z,84.33
2022-08-20T22:26:43.946Z,85.93
2022-08-20T22:29:47.008Z,84.62
2022-08-20T22:32:51.425Z,84.07
2022-08-20T22:35:58.841Z,83.37
2022-08-20T22:39:01.516Z,83.36
2022-08-20T22:42:04.744Z,83.84
2022-08-20T22:45:13.454Z,83.01
2022-08-20T22:48:20.329Z,83.12
2022-08-20T22:51:34.987Z,82.57
2022-08-20T22:54:39.158Z,82.48
2022-08-20T22:57:47.562Z,82.51
2022-08-20T23:00:51.512Z,82.90
2022-08-20T23:04:02.040Z,82.80
2022-08-20T23:07:09.191Z,82.96
2022-08-20T23:10:12.003Z,82.64
2022-08-20T23:13:14.978Z,81.93
2022-08-20T23:16:18.636Z,81.63
2022-08-20T23:19:22.887Z,81.89
2022-08-20T23:22:26.106Z,82.24
2022-08-20T23:25:29.135Z,82.11
2022-08-20T23:28:32.509Z,81.82
2022-08-20T23:31:35.516Z,81.66
2022-08-20T23:34:38.350Z,81.37
2022-08-20T23:37:45.410Z,81.40
2022-08-20T23:40:48.158Z,80.88
2022-08-20T23:43:51.467Z,80.83
2022-08-20T23:46:59.883Z,80.43
2022-08-20T23:50:03.888Z,80.69
2022-08-20T23:53:06.782Z,81.01
2022-08-20T23:56:10.786Z,80.67
2022-08-20T23:59:13.387Z,80.91
